createdAt,value
2023-05-25T00:01:02.974Z,41.01
2023-05-25T00:03:31.361Z,44.65
2023-05-25T00:06:01.537Z,43.56
2023-05-25T00:08:29.706Z,44.69
2023-05-25T00:10:56.578Z,42.91
2023-05-25T00:13:23.342Z,43.68
2023-05-25T00:15:50.657Z,43.25
2023-05-25T00:18:18.494Z,45.12
2023-05-25T00:20:45.995Z,44.86
2023-05-25T00:23:12.784Z,43.45
2023-05-25T00:25:39.523Z,42.87
2023-05-25T00:28:06.468Z,41.75
2023-05-25T00:30:33.225Z,43.88
2023-05-25T00:33:01.619Z,45.39
2023-05-25T00:35:28.899Z,41.53
2023-05-25T00:37:55.991Z,41.93
2023-05-25T00:40:22.833Z,44.90
2023-05-25T00:42:52.494Z,40.68
2023-05-25T00:45:19.198Z,42.07
2023-05-25T00:47:51.244Z,43.12
2023-05-25T00:50:30.489Z,42.92
2023-05-25T00:52:57.326Z,45.04
2023-05-25T00:55:25.976Z,44.76
2023-05-25T00:57:55.442Z,47.39
2023-05-25T01:00:23.812Z,45.59
2023-05-25T01:02:53.137Z,48.11
2023-05-25T01:05:21.769Z,44.78
2023-05-25T01:07:50.581Z,48.31
2023-05-25T01:10:20.779Z,47.40
2023-05-25T01:12:53.242Z,47.42
2023-05-25T01:15:20.956Z,45.49
2023-05-25T01:17:54.126Z,44.95
2023-05-25T01:20:21.134Z,44.06
2023-05-25T01:22:54.283Z,44.89
2023-05-25T01:25:31.568Z,45.13
2023-05-25T01:28:09.526Z,44.74
2023-05-25T01:30:38.752Z,43.55
2023-05-25T01:33:07.385Z,43.83
2023-05-25T01:35:35.739Z,43.83
2023-05-25T01:38:03.096Z,42.82
2023-05-25T01:40:29.963Z,44.44
2023-05-25T01:42:56.862Z,46.54
2023-05-25T01:45:24.073Z,48.11
2023-05-25T01:48:15.418Z,45.27
2023-05-25T01:50:54.686Z,42.50
2023-05-25T01:53:35.983Z,42.21
2023-05-25T01:56:08.809Z,44.48
2023-05-25T01:58:42.076Z,43.58
2023-05-25T02:01:10.449Z,44.50
2023-05-25T02:03:38.257Z,44.75
2023-05-25T02:06:05.610Z,48.13
2023-05-25T02:08:34.919Z,44.55
2023-05-25T02:11:01.911Z,43.05
2023-05-25T02:13:28.682Z,44.97
2023-05-25T02:15:55.704Z,44.67
2023-05-25T02:18:22.624Z,42.40
2023-05-25T02:20:49.594Z,43.94
2023-05-25T02:23:18.670Z,43.12
2023-05-25T02:25:45.814Z,44.71
2023-05-25T02:28:12.930Z,45.44
2023-05-25T02:30:39.707Z,46.93
2023-05-25T02:33:06.547Z,50.42
2023-05-25T02:35:34.775Z,53.04
2023-05-25T02:38:01.910Z,50.97
2023-05-25T02:40:28.758Z,48.35
2023-05-25T02:42:55.734Z,50.63
2023-05-25T02:45:22.740Z,48.29
2023-05-25T02:47:50.084Z,50.50
2023-05-25T02:50:17.578Z,48.59
2023-05-25T02:52:47.508Z,49.56
2023-05-25T02:55:14.654Z,48.48
2023-05-25T02:57:42.460Z,53.32
2023-05-25T03:00:12.462Z,48.06
2023-05-25T03:02:39.656Z,50.79
2023-05-25T03:05:07.578Z,48.96
2023-05-25T03:07:35.713Z,52.91
2023-05-25T03:10:02.589Z,54.50
2023-05-25T03:12:29.678Z,49.38
2023-05-25T03:14:56.584Z,50.73
2023-05-25T03:17:23.582Z,51.40
2023-05-25T03:19:50.446Z,50.44
2023-05-25T03:22:17.205Z,58.47
2023-05-25T03:24:46.663Z,51.41
2023-05-25T03:27:13.946Z,51.30
2023-05-25T03:29:40.743Z,52.43
2023-05-25T03:32:08.798Z,50.28
2023-05-25T03:34:37.398Z,50.80
2023-05-25T03:37:05.442Z,53.88
2023-05-25T03:39:32.239Z,49.50
2023-05-25T03:41:59.067Z,51.30
2023-05-25T03:44:25.908Z,50.33
2023-05-25T03:46:53.471Z,51.72
2023-05-25T03:49:20.377Z,51.17
2023-05-25T03:51:47.139Z,50.19
2023-05-25T03:54:14.087Z,56.40
2023-05-25T03:56:41.006Z,51.15
2023-05-25T03:59:07.886Z,46.88
2023-05-25T04:01:38.180Z,50.97
2023-05-25T04:04:06.787Z,52.17
2023-05-25T04:06:37.230Z,51.65
2023-05-25T04:09:04.887Z,54.91
2023-05-25T04:11:33.276Z,53.08
2023-05-25T04:14:00.064Z,50.14
2023-05-25T04:16:30.020Z,49.91
2023-05-25T04:18:57.480Z,46.46
2023-05-25T04:21:24.736Z,46.39
2023-05-25T04:23:51.563Z,55.68
2023-05-25T04:26:19.543Z,54.27
2023-05-25T04:28:48.683Z,48.28
2023-05-25T04:31:34.062Z,47.10
2023-05-25T04:34:21.587Z,50.60
2023-05-25T04:37:05.614Z,47.17
2023-05-25T04:39:33.115Z,49.64
2023-05-25T04:42:04.698Z,46.08
2023-05-25T04:44:33.384Z,48.72
2023-05-25T04:47:01.478Z,46.26
2023-05-25T04:49:34.024Z,49.10
2023-05-25T04:52:01.080Z,45.88
2023-05-25T04:54:29.929Z,48.85
2023-05-25T04:56:59.452Z,51.67
2023-05-25T04:59:26.314Z,49.71
2023-05-25T05:01:53.175Z,46.73
2023-05-25T05:04:20.452Z,46.05
2023-05-25T05:06:47.755Z,49.40
2023-05-25T05:09:23.000Z,49.05
2023-05-25T05:11:49.845Z,51.73
2023-05-25T05:14:18.150Z,47.67
2023-05-25T05:16:48.061Z,48.11
2023-05-25T05:19:15.153Z,47.12
2023-05-25T05:21:42.255Z,45.28
2023-05-25T05:24:09.318Z,47.12
2023-05-25T05:26:48.171Z,45.34
2023-05-25T05:29:27.892Z,46.56
2023-05-25T05:31:55.632Z,46.84
2023-05-25T05:34:22.476Z,44.49
2023-05-25T05:36:57.506Z,47.65
2023-05-25T05:39:27.460Z,45.37
2023-05-25T05:41:55.157Z,43.29
2023-05-25T05:44:23.467Z,46.24
2023-05-25T05:46:52.285Z,44.45
2023-05-25T05:49:19.160Z,43.85
2023-05-25T05:51:46.048Z,45.77
2023-05-25T05:54:13.875Z,46.53
2023-05-25T05:56:40.889Z,45.87
2023-05-25T05:59:07.716Z,49.41
2023-05-25T06:01:34.647Z,45.30
2023-05-25T06:04:02.121Z,45.30
2023-05-25T06:06:28.903Z,45.81
2023-05-25T06:08:57.629Z,46.49
2023-05-25T06:11:24.419Z,44.30
2023-05-25T06:13:51.211Z,45.60
2023-05-25T06:16:18.060Z,43.49
2023-05-25T06:18:45.191Z,44.49
2023-05-25T06:21:13.028Z,43.85
2023-05-25T06:23:39.965Z,46.09
2023-05-25T06:26:07.127Z,47.60
2023-05-25T06:28:34.592Z,44.95
2023-05-25T06:31:01.444Z,43.76
2023-05-25T06:33:28.288Z,44.89
2023-05-25T06:35:58.677Z,43.59
2023-05-25T06:38:25.517Z,46.55
2023-05-25T06:40:53.054Z,42.18
2023-05-25T06:43:20.529Z,42.08
2023-05-25T06:45:54.578Z,43.89
2023-05-25T06:48:21.411Z,42.47
2023-05-25T06:50:48.240Z,42.07
2023-05-25T06:53:15.335Z,46.44
2023-05-25T06:55:42.572Z,44.88
2023-05-25T06:58:09.446Z,42.88
2023-05-25T07:00:36.234Z,44.35
2023-05-25T07:03:03.119Z,43.65
2023-05-25T07:05:29.927Z,46.03
2023-05-25T07:07:56.716Z,43.82
2023-05-25T07:10:23.966Z,45.33
2023-05-25T07:12:50.834Z,43.01
2023-05-25T07:15:17.775Z,42.81
2023-05-25T07:17:45.210Z,42.68
2023-05-25T07:20:13.265Z,46.00
2023-05-25T07:22:40.226Z,43.88
2023-05-25T07:25:07.471Z,43.01
2023-05-25T07:27:34.380Z,44.38
2023-05-25T07:30:01.137Z,44.84
2023-05-25T07:32:28.048Z,44.17
2023-05-25T07:34:54.914Z,43.78
2023-05-25T07:37:21.675Z,45.54
2023-05-25T07:39:48.566Z,43.70
2023-05-25T07:42:20.861Z,41.96
2023-05-25T07:44:49.129Z,43.58
2023-05-25T07:47:16.005Z,43.93
2023-05-25T07:49:42.923Z,43.94
2023-05-25T07:52:10.434Z,44.08
2023-05-25T07:54:40.329Z,44.32
2023-05-25T07:57:08.024Z,42.16
2023-05-25T07:59:35.320Z,41.10
2023-05-25T08:02:02.767Z,43.43
2023-05-25T08:04:31.373Z,39.67
2023-05-25T08:06:58.376Z,41.62
2023-05-25T08:09:25.122Z,44.18
2023-05-25T08:11:52.352Z,43.23
2023-05-25T08:14:21.265Z,42.11
2023-05-25T08:16:48.203Z,40.34
2023-05-25T08:19:15.073Z,43.08
2023-05-25T08:21:41.962Z,43.72
2023-05-25T08:24:08.776Z,45.43
2023-05-25T08:26:52.830Z,42.91
2023-05-25T08:29:21.406Z,42.61
2023-05-25T08:31:49.848Z,41.97
2023-05-25T08:34:17.144Z,45.79
2023-05-25T08:36:44.877Z,42.85
2023-05-25T08:39:11.880Z,44.10
2023-05-25T08:41:43.092Z,44.37
2023-05-25T08:44:10.807Z,40.23
2023-05-25T08:46:37.907Z,40.20
2023-05-25T08:49:13.200Z,40.61
2023-05-25T08:51:49.824Z,43.79
2023-05-25T08:54:19.661Z,41.07
2023-05-25T08:56:50.866Z,44.64
2023-05-25T08:59:23.474Z,42.22
2023-05-25T09:01:56.460Z,43.24
2023-05-25T09:04:24.185Z,40.42
2023-05-25T09:07:05.675Z,42.75
2023-05-25T09:09:38.041Z,43.02
2023-05-25T09:12:06.329Z,43.47
2023-05-25T09:14:34.858Z,41.45
2023-05-25T09:17:01.992Z,41.49
2023-05-25T09:19:28.757Z,40.58
2023-05-25T09:22:03.190Z,40.83
2023-05-25T09:24:41.528Z,41.40
2023-05-25T09:27:11.845Z,45.63
2023-05-25T09:29:38.901Z,43.83
2023-05-25T09:32:06.796Z,40.57
2023-05-25T09:34:34.976Z,42.02
2023-05-25T09:37:04.738Z,40.07
2023-05-25T09:39:31.845Z,35.88
2023-05-25T09:41:58.787Z,38.26
2023-05-25T09:44:27.200Z,39.19
2023-05-25T09:46:54.110Z,39.36
2023-05-25T09:49:21.332Z,39.97
2023-05-25T09:51:48.434Z,36.67
2023-05-25T09:54:15.637Z,37.20
2023-05-25T09:56:42.656Z,35.89
2023-05-25T09:59:09.618Z,36.53
2023-05-25T10:01:36.960Z,36.72
2023-05-25T10:04:05.455Z,38.90
2023-05-25T10:06:33.888Z,37.54
2023-05-25T10:09:01.692Z,37.53
2023-05-25T10:11:29.490Z,38.59
2023-05-25T10:13:56.827Z,36.36
2023-05-25T10:16:29.692Z,35.86
2023-05-25T10:19:26.047Z,37.25
2023-05-25T10:22:01.534Z,34.12
2023-05-25T10:24:35.150Z,36.43
2023-05-25T10:27:14.719Z,35.73
2023-05-25T10:29:52.582Z,34.88
2023-05-25T10:32:19.573Z,33.76
2023-05-25T10:34:48.819Z,35.74
2023-05-25T10:37:18.587Z,36.27
2023-05-25T10:39:46.348Z,34.35
2023-05-25T10:42:13.370Z,35.58
2023-05-25T10:44:42.150Z,33.95
2023-05-25T10:47:09.710Z,34.50
2023-05-25T10:49:53.252Z,35.13
2023-05-25T10:52:20.871Z,34.18
2023-05-25T10:54:48.929Z,37.89
2023-05-25T10:57:20.999Z,37.05
2023-05-25T10:59:52.310Z,36.51
2023-05-25T11:02:25.213Z,35.31
2023-05-25T11:05:27.409Z,35.93
2023-05-25T11:07:57.885Z,35.14
2023-05-25T11:10:46.376Z,34.09
2023-05-25T11:13:23.692Z,37.31
2023-05-25T11:16:40.182Z,40.09
2023-05-25T11:19:15.060Z,36.42
2023-05-25T11:21:44.021Z,36.67
2023-05-25T11:24:14.174Z,35.00
2023-05-25T11:26:58.747Z,35.93
2023-05-25T11:29:27.358Z,34.40
2023-05-25T11:31:56.197Z,36.47
2023-05-25T11:34:28.150Z,36.55
2023-05-25T11:37:02.294Z,39.34
2023-05-25T11:39:30.288Z,36.98
2023-05-25T11:42:04.344Z,39.60
2023-05-25T11:44:34.209Z,37.77
2023-05-25T11:47:14.928Z,33.85
2023-05-25T11:49:44.252Z,35.25
2023-05-25T11:52:11.182Z,35.23
2023-05-25T11:54:41.089Z,36.20
2023-05-25T11:57:25.384Z,35.97
2023-05-25T11:59:54.367Z,36.38
2023-05-25T12:02:22.128Z,37.54
2023-05-25T12:04:59.433Z,36.00
2023-05-25T12:07:26.869Z,37.85
2023-05-25T12:10:08.444Z,36.19
2023-05-25T12:12:50.965Z,38.13
2023-05-25T12:15:27.176Z,38.57
2023-05-25T12:17:54.583Z,38.62
2023-05-25T12:20:22.530Z,35.29
2023-05-25T12:22:49.800Z,36.48
2023-05-25T12:25:20.241Z,33.71
2023-05-25T12:27:47.080Z,38.35
2023-05-25T12:30:14.062Z,35.65
2023-05-25T12:33:03.816Z,35.07
2023-05-25T12:35:45.234Z,34.17
2023-05-25T12:38:18.285Z,34.57
2023-05-25T12:40:45.635Z,36.98
2023-05-25T12:43:14.223Z,37.19
2023-05-25T12:45:42.602Z,35.95
2023-05-25T12:48:09.801Z,35.10
2023-05-25T12:50:41.406Z,37.15
2023-05-25T12:53:08.320Z,35.22
2023-05-25T12:55:36.292Z,36.13
2023-05-25T12:58:05.696Z,36.83
2023-05-25T13:00:35.502Z,37.04
2023-05-25T13:03:02.950Z,36.23
2023-05-25T13:05:32.982Z,36.29
2023-05-25T13:07:59.956Z,35.21
2023-05-25T13:10:28.818Z,37.37
2023-05-25T13:12:58.332Z,36.53
2023-05-25T13:15:26.372Z,36.65
2023-05-25T13:17:54.301Z,33.71
2023-05-25T13:20:24.945Z,35.15
2023-05-25T13:22:53.185Z,34.23
2023-05-25T13:25:22.325Z,29.83
2023-05-25T13:27:51.112Z,28.87
2023-05-25T13:30:18.325Z,30.02
2023-05-25T13:32:45.745Z,31.13
2023-05-25T13:35:19.359Z,31.97
2023-05-25T13:37:46.502Z,32.10
2023-05-25T13:40:13.740Z,33.89
2023-05-25T13:42:40.896Z,34.47
2023-05-25T13:45:08.404Z,32.20
2023-05-25T13:47:35.381Z,32.31
2023-05-25T13:50:02.305Z,32.12
2023-05-25T13:52:29.112Z,34.75
2023-05-25T13:54:55.991Z,33.11
2023-05-25T13:57:22.792Z,32.43
2023-05-25T13:59:49.565Z,34.23
2023-05-25T14:02:16.594Z,35.04
2023-05-25T14:04:43.501Z,34.72
2023-05-25T14:07:11.034Z,33.36
2023-05-25T14:09:37.967Z,37.02
2023-05-25T14:12:05.162Z,34.39
2023-05-25T14:14:33.038Z,29.39
2023-05-25T14:17:01.346Z,28.63
2023-05-25T14:19:29.377Z,30.72
2023-05-25T14:22:11.725Z,30.43
2023-05-25T14:24:40.696Z,30.19
2023-05-25T14:27:07.532Z,33.01
2023-05-25T14:29:34.648Z,31.58
2023-05-25T14:32:01.968Z,29.58
2023-05-25T14:34:29.557Z,28.58
2023-05-25T14:36:56.784Z,31.64
2023-05-25T14:39:23.661Z,33.77
2023-05-25T14:41:50.680Z,33.72
2023-05-25T14:44:17.607Z,30.25
2023-05-25T14:46:44.429Z,32.82
2023-05-25T14:49:11.211Z,33.68
2023-05-25T14:51:38.339Z,32.40
2023-05-25T14:54:06.448Z,33.07
2023-05-25T14:56:33.679Z,31.55
2023-05-25T14:59:00.440Z,32.04
2023-05-25T15:01:32.496Z,35.04
2023-05-25T15:03:59.386Z,30.71
2023-05-25T15:06:26.328Z,30.35
2023-05-25T15:08:53.383Z,33.32
2023-05-25T15:11:20.269Z,30.04
2023-05-25T15:13:47.059Z,31.08
2023-05-25T15:16:14.660Z,31.90
2023-05-25T15:18:41.671Z,30.86
2023-05-25T15:21:08.902Z,30.06
2023-05-25T15:23:36.762Z,31.75
2023-05-25T15:26:07.852Z,33.12
2023-05-25T15:28:35.078Z,30.97
2023-05-25T15:31:03.349Z,30.56
2023-05-25T15:33:44.152Z,30.79
2023-05-25T15:36:16.754Z,31.46
2023-05-25T15:38:44.502Z,29.62
2023-05-25T15:41:15.087Z,33.17
2023-05-25T15:43:42.278Z,30.23
2023-05-25T15:46:09.072Z,28.70
2023-05-25T15:48:36.022Z,31.25
2023-05-25T15:51:02.830Z,32.31
2023-05-25T15:53:30.447Z,31.08
2023-05-25T15:55:57.437Z,30.41
2023-05-25T15:58:24.243Z,32.80
2023-05-25T16:00:51.059Z,31.66
2023-05-25T16:03:17.936Z,30.14
2023-05-25T16:05:45.016Z,31.18
2023-05-25T16:08:14.059Z,30.50
2023-05-25T16:10:40.914Z,33.40
2023-05-25T16:13:07.729Z,31.16
2023-05-25T16:15:34.503Z,31.58
2023-05-25T16:18:01.407Z,32.59
2023-05-25T16:20:28.272Z,34.08
2023-05-25T16:22:55.069Z,32.70
2023-05-25T16:25:21.969Z,31.47
2023-05-25T16:27:48.769Z,31.93
2023-05-25T16:30:15.584Z,34.32
2023-05-25T16:32:42.456Z,33.82
2023-05-25T16:35:09.443Z,31.20
2023-05-25T16:37:36.225Z,31.51
2023-05-25T16:40:03.119Z,31.25
2023-05-25T16:42:29.951Z,30.70
2023-05-25T16:44:56.686Z,31.86
2023-05-25T16:47:23.436Z,31.58
2023-05-25T16:49:50.281Z,31.71
2023-05-25T16:52:17.096Z,33.90
2023-05-25T16:54:43.854Z,34.04
2023-05-25T16:57:11.412Z,31.93
2023-05-25T16:59:39.358Z,31.62
2023-05-25T17:02:06.803Z,33.37
2023-05-25T17:04:33.612Z,33.68
2023-05-25T17:07:00.459Z,34.25
2023-05-25T17:09:27.564Z,33.02
2023-05-25T17:11:59.411Z,33.93
2023-05-25T17:14:26.240Z,33.77
2023-05-25T17:16:53.511Z,33.55
2023-05-25T17:19:20.307Z,35.76
2023-05-25T17:21:47.648Z,35.20
2023-05-25T17:24:14.490Z,35.23
2023-05-25T17:26:41.525Z,37.36
2023-05-25T17:29:08.361Z,37.94
2023-05-25T17:31:35.652Z,38.71
2023-05-25T17:34:05.904Z,38.26
2023-05-25T17:36:32.726Z,37.23
2023-05-25T17:38:59.586Z,38.00
2023-05-25T17:41:26.512Z,37.78
2023-05-25T17:43:53.414Z,38.31
2023-05-25T17:46:45.660Z,38.04
2023-05-25T17:49:15.345Z,39.06
2023-05-25T17:51:42.277Z,40.79
2023-05-25T17:55:00.537Z,39.04
2023-05-25T17:57:27.458Z,38.35
2023-05-25T17:59:56.375Z,40.33
2023-05-25T18:02:23.460Z,39.42
2023-05-25T18:04:50.637Z,41.62
2023-05-25T18:07:18.023Z,41.49
2023-05-25T18:09:44.855Z,42.63
2023-05-25T18:12:11.795Z,42.84
2023-05-25T18:14:38.735Z,42.31
2023-05-25T18:17:05.695Z,42.17
2023-05-25T18:19:32.593Z,41.69
2023-05-25T18:21:59.456Z,42.97
2023-05-25T18:24:26.388Z,42.71
2023-05-25T18:26:53.189Z,42.37
2023-05-25T18:29:20.014Z,43.05
2023-05-25T18:31:48.917Z,41.56
2023-05-25T18:34:16.133Z,40.22
2023-05-25T18:36:42.996Z,42.16
2023-05-25T18:39:09.895Z,43.04
2023-05-25T18:41:36.829Z,43.95
2023-05-25T18:44:03.709Z,42.24
2023-05-25T18:46:30.694Z,42.17
2023-05-25T18:48:57.425Z,43.25
2023-05-25T18:51:25.983Z,42.30
2023-05-25T18:53:53.408Z,41.66
2023-05-25T18:56:20.182Z,40.20
2023-05-25T18:58:48.262Z,42.21
2023-05-25T19:01:15.722Z,42.41
2023-05-25T19:03:42.621Z,40.47
2023-05-25T19:06:09.616Z,41.50
2023-05-25T19:08:36.420Z,41.45
2023-05-25T19:11:03.303Z,40.94
2023-05-25T19:13:30.101Z,40.55
2023-05-25T19:15:56.958Z,42.61
2023-05-25T19:18:23.779Z,42.38
2023-05-25T19:20:50.663Z,44.58
2023-05-25T19:23:19.503Z,43.55
2023-05-25T19:25:46.672Z,43.35
2023-05-25T19:28:14.346Z,40.82
2023-05-25T19:30:41.331Z,41.40
2023-05-25T19:33:08.369Z,40.65
2023-05-25T19:35:35.701Z,40.19
2023-05-25T19:38:02.591Z,41.22
2023-05-25T19:40:29.493Z,43.79
2023-05-25T19:42:56.370Z,43.31
2023-05-25T19:45:23.294Z,41.26
2023-05-25T19:47:50.633Z,40.00
2023-05-25T19:50:17.648Z,39.42
2023-05-25T19:52:44.639Z,39.80
2023-05-25T19:55:11.687Z,41.95
2023-05-25T19:57:38.604Z,41.13
2023-05-25T20:00:14.193Z,39.87
2023-05-25T20:02:48.330Z,39.08
2023-05-25T20:05:15.197Z,38.97
2023-05-25T20:07:42.160Z,39.94
2023-05-25T20:10:09.316Z,39.67
2023-05-25T20:12:36.235Z,39.96
2023-05-25T20:15:03.701Z,40.90
2023-05-25T20:17:30.765Z,41.02
2023-05-25T20:19:59.626Z,39.85
2023-05-25T20:22:28.165Z,39.25
2023-05-25T20:24:58.376Z,38.99
2023-05-25T20:27:25.923Z,39.21
2023-05-25T20:29:54.083Z,39.05
2023-05-25T20:32:21.210Z,39.07
2023-05-25T20:34:50.519Z,40.20
2023-05-25T20:37:17.442Z,38.06
2023-05-25T20:39:44.670Z,38.93
2023-05-25T20:42:11.850Z,40.10
2023-05-25T20:44:38.942Z,40.68
2023-05-25T20:47:08.759Z,39.63
2023-05-25T20:49:35.774Z,38.65
2023-05-25T20:52:02.857Z,39.24
2023-05-25T20:54:30.153Z,40.36
2023-05-25T20:56:57.254Z,38.62
2023-05-25T20:59:24.241Z,38.84
2023-05-25T21:01:51.315Z,38.55
2023-05-25T21:04:18.493Z,39.46
2023-05-25T21:06:45.725Z,39.58
2023-05-25T21:09:12.807Z,41.02
2023-05-25T21:11:39.756Z,42.01
2023-05-25T21:14:07.396Z,41.25
2023-05-25T21:16:34.885Z,39.16
2023-05-25T21:19:04.158Z,38.03
2023-05-25T21:21:33.981Z,38.64
2023-05-25T21:24:04.393Z,40.40
2023-05-25T21:26:31.624Z,40.57
2023-05-25T21:29:01.931Z,40.79
2023-05-25T21:31:29.030Z,37.55
2023-05-25T21:33:56.153Z,37.64
2023-05-25T21:36:23.259Z,39.04
2023-05-25T21:38:50.600Z,38.72
2023-05-25T21:41:17.799Z,38.28
2023-05-25T21:43:44.784Z,38.29
2023-05-25T21:46:11.638Z,38.37
2023-05-25T21:48:38.434Z,39.73
2023-05-25T21:51:05.560Z,40.56
2023-05-25T21:53:32.457Z,41.17
2023-05-25T21:55:59.344Z,38.68
2023-05-25T21:58:26.279Z,39.46
2023-05-25T22:00:53.167Z,40.40
2023-05-25T22:03:20.116Z,40.43
2023-05-25T22:05:47.041Z,38.10
2023-05-25T22:08:13.914Z,38.06
2023-05-25T22:10:41.200Z,40.86
2023-05-25T22:13:08.082Z,40.49
2023-05-25T22:15:35.328Z,40.75
2023-05-25T22:18:02.365Z,40.67
2023-05-25T22:20:29.307Z,39.78
2023-05-25T22:22:56.154Z,37.68
2023-05-25T22:25:23.202Z,40.21
2023-05-25T22:27:49.993Z,39.06
2023-05-25T22:30:16.843Z,40.35
2023-05-25T22:32:43.671Z,39.45
2023-05-25T22:35:10.615Z,37.95
2023-05-25T22:37:37.474Z,39.59
2023-05-25T22:40:05.916Z,40.62
2023-05-25T22:42:32.862Z,40.60
2023-05-25T22:44:59.614Z,40.49
2023-05-25T22:47:26.487Z,39.47
2023-05-25T22:49:53.332Z,40.59
2023-05-25T22:52:20.164Z,41.26
2023-05-25T22:54:47.004Z,40.92
2023-05-25T22:57:13.814Z,38.65
2023-05-25T22:59:40.709Z,38.89
2023-05-25T23:02:08.077Z,37.79
2023-05-25T23:04:38.274Z,38.48
2023-05-25T23:07:05.354Z,38.02
2023-05-25T23:09:32.121Z,37.83
2023-05-25T23:11:58.846Z,42.43
2023-05-25T23:14:26.219Z,39.52
2023-05-25T23:16:53.027Z,39.58
2023-05-25T23:19:20.000Z,38.65
2023-05-25T23:21:48.327Z,39.93
2023-05-25T23:24:15.604Z,42.75
2023-05-25T23:26:42.447Z,44.42
2023-05-25T23:29:09.344Z,43.18
2023-05-25T23:31:36.655Z,44.54
2023-05-25T23:34:03.513Z,48.58
2023-05-25T23:36:30.332Z,44.88
2023-05-25T23:38:57.115Z,47.38
2023-05-25T23:41:25.398Z,49.65
2023-05-25T23:43:52.273Z,46.11
2023-05-25T23:46:19.346Z,45.73
2023-05-25T23:48:46.302Z,48.25
2023-05-25T23:51:13.325Z,45.57
2023-05-25T23:53:40.075Z,46.00
2023-05-25T23:56:07.137Z,45.56
2023-05-25T23:58:34.326Z,45.20
